Time;durP1;ratioP1;P1;durP2;ratioP2;P2;SDS_P1;SDS_P2;PMS_P1;PMS_P2;Temp;Humidity;BMP_temperature;BMP_pressure;BME280_temperature;BME280_humidity;BME280_pressure;Samples;Min_cycle;Max_cycle;Signal;HPM_P1;HPM_P2
2023/05/04 00:00:38;;;;;;;10.23;7.93;;;19.50;35.70;;;;;;4941228;29;20447;-78
2023/05/04 00:03:06;;;;;;;9.57;8.10;;;19.50;35.60;;;;;;4957982;28;20474;-79
2023/05/04 00:05:34;;;;;;;12.83;8.43;;;19.40;35.60;;;;;;4957821;28;20479;-79
2023/05/04 00:08:02;;;;;;;12.13;8.10;;;19.40;35.60;;;;;;4949075;29;20444;-79
2023/05/04 00:10:32;;;;;;;12.63;9.13;;;19.40;35.70;;;;;;4943137;29;20479;-80
2023/05/04 00:13:00;;;;;;;10.57;8.13;;;19.30;35.70;;;;;;4945217;29;20484;-80
2023/05/04 00:15:29;;;;;;;11.27;8.50;;;19.30;35.80;;;;;;4943410;29;20468;-79
2023/05/04 00:17:57;;;;;;;10.00;7.47;;;19.30;35.70;;;;;;4950335;29;20451;-81
2023/05/04 00:20:25;;;;;;;9.90;7.30;;;19.30;35.80;;;;;;4940740;29;20448;-80
2023/05/04 00:22:53;;;;;;;10.63;7.47;;;19.30;35.70;;;;;;4949197;29;20472;-80
2023/05/04 00:25:21;;;;;;;12.20;8.30;;;19.20;35.60;;;;;;4950806;29;20451;-79
2023/05/04 00:27:50;;;;;;;11.90;8.00;;;19.20;35.60;;;;;;4951718;28;20459;-80
2023/05/04 00:30:19;;;;;;;9.50;8.00;;;19.20;35.60;;;;;;4943612;29;20455;-80
2023/05/04 00:32:47;;;;;;;8.57;7.43;;;19.20;35.70;;;;;;4938675;29;20472;-80
2023/05/04 00:35:15;;;;;;;21.17;15.30;;;19.20;35.60;;;;;;4947929;29;20452;-78
2023/05/04 00:37:45;;;;;;;29.53;19.33;;;19.10;35.40;;;;;;4942212;29;20486;-80
2023/05/04 00:40:13;;;;;;;30.00;19.13;;;19.20;35.70;;;;;;4951901;29;20462;-80
2023/05/04 00:42:41;;;;;;;30.40;21.00;;;19.10;35.60;;;;;;4955266;29;20482;-79
2023/05/04 00:45:11;;;;;;;39.80;26.50;;;19.10;35.50;;;;;;4953457;29;20459;-80
2023/05/04 00:47:39;;;;;;;40.53;27.03;;;19.10;35.60;;;;;;4958281;29;20459;-79
2023/05/04 00:50:09;;;;;;;45.13;28.57;;;19.00;35.40;;;;;;4955038;28;20444;-80
2023/05/04 00:52:37;;;;;;;48.97;30.53;;;19.00;35.70;;;;;;4949383;29;20478;-80
2023/05/04 00:55:05;;;;;;;47.80;30.30;;;19.00;35.60;;;;;;4958857;28;20455;-81
2023/05/04 00:57:33;;;;;;;49.40;31.57;;;18.90;35.50;;;;;;4954157;29;20451;-79
2023/05/04 01:00:02;;;;;;;52.03;32.63;;;18.90;35.50;;;;;;4953385;29;20452;-80
2023/05/04 01:02:32;;;;;;;50.43;33.47;;;18.90;35.60;;;;;;4938026;29;20472;-78
2023/05/04 01:05:00;;;;;;;59.93;35.27;;;18.90;35.60;;;;;;4947077;29;20454;-79
2023/05/04 01:07:31;;;;;;;57.43;36.63;;;18.90;35.60;;;;;;4957730;29;20447;-80
2023/05/04 01:10:01;;;;;;;53.30;35.77;;;18.90;35.60;;;;;;4941617;29;20448;-80
2023/05/04 01:12:33;;;;;;;60.00;36.50;;;18.80;35.60;;;;;;4945174;29;20509;-79
2023/05/04 01:15:02;;;;;;;56.93;36.03;;;18.80;35.50;;;;;;4958605;28;20547;-80
2023/05/04 01:17:31;;;;;;;57.30;36.83;;;18.80;35.60;;;;;;4957918;29;20543;-80
2023/05/04 01:19:59;;;;;;;60.10;37.97;;;18.80;35.70;;;;;;4950045;28;20486;-80
2023/05/04 01:22:28;;;;;;;62.13;39.03;;;18.80;35.60;;;;;;4955141;28;20475;-78
2023/05/04 01:24:56;;;;;;;55.10;34.80;;;18.80;35.60;;;;;;4949985;29;20466;-80
2023/05/04 01:27:27;;;;;;;56.83;34.37;;;18.70;35.50;;;;;;4950535;29;20451;-80
2023/05/04 01:29:58;;;;;;;57.30;35.97;;;18.80;35.60;;;;;;4940761;29;20459;-80
2023/05/04 01:32:26;;;;;;;56.73;34.90;;;18.70;35.60;;;;;;4939647;29;20993;-81
2023/05/04 01:34:54;;;;;;;53.30;34.80;;;18.70;35.60;;;;;;4944266;29;20546;-81
2023/05/04 01:37:22;;;;;;;54.63;34.03;;;18.60;35.50;;;;;;4940164;29;20448;-81
2023/05/04 01:39:52;;;;;;;53.50;33.57;;;18.60;35.50;;;;;;4941979;29;20462;-80
2023/05/04 01:42:20;;;;;;;53.70;33.57;;;18.60;35.50;;;;;;4958410;29;20475;-81
2023/05/04 01:44:48;;;;;;;51.93;32.77;;;18.60;35.50;;;;;;4945421;29;20455;-81
2023/05/04 01:47:15;;;;;;;48.03;31.70;;;18.60;35.50;;;;;;4940414;29;20448;-79
2023/05/04 01:49:43;;;;;;;49.00;31.30;;;18.60;35.40;;;;;;4946098;29;20445;-79
2023/05/04 01:52:12;;;;;;;48.60;30.03;;;18.60;35.60;;;;;;4949546;29;20983;-79
2023/05/04 01:54:40;;;;;;;46.53;28.90;;;18.50;35.60;;;;;;4955066;29;20451;-79
2023/05/04 01:57:10;;;;;;;51.10;30.27;;;18.50;35.60;;;;;;4940855;29;20444;-79
2023/05/04 01:59:38;;;;;;;43.10;28.67;;;18.50;35.60;;;;;;4942634;28;20844;-80
2023/05/04 02:02:06;;;;;;;45.07;28.13;;;18.50;35.60;;;;;;4939289;29;20472;-79
2023/05/04 02:04:34;;;;;;;43.77;28.27;;;18.50;35.60;;;;;;4937004;29;20452;-80
2023/05/04 02:07:03;;;;;;;42.87;27.07;;;18.40;35.60;;;;;;4949093;29;20443;-79
2023/05/04 02:09:31;;;;;;;43.00;26.27;;;18.40;35.70;;;;;;4938394;29;20450;-80
2023/05/04 02:11:59;;;;;;;42.43;26.80;;;18.40;35.60;;;;;;4943984;29;20483;-78
2023/05/04 02:14:29;;;;;;;40.33;25.33;;;18.40;35.60;;;;;;4936899;29;20467;-81
2023/05/04 02:16:57;;;;;;;39.40;25.20;;;18.40;35.70;;;;;;4943225;29;20458;-80
2023/05/04 02:19:25;;;;;;;37.20;24.07;;;18.40;35.70;;;;;;4947585;28;20456;-81
2023/05/04 02:21:53;;;;;;;37.90;23.60;;;18.30;35.50;;;;;;4948041;28;20471;-79
2023/05/04 02:24:21;;;;;;;34.37;22.00;;;18.30;35.50;;;;;;4948052;28;20454;-81
2023/05/04 02:26:49;;;;;;;38.87;22.90;;;18.20;35.50;;;;;;4937553;29;20490;-81
2023/05/04 02:29:18;;;;;;;37.33;22.90;;;18.20;35.50;;;;;;4951292;29;20432;-82
2023/05/04 02:31:47;;;;;;;32.90;20.70;;;18.20;35.60;;;;;;4937552;29;20858;-80
2023/05/04 02:34:16;;;;;;;31.03;20.27;;;18.20;35.50;;;;;;4955938;29;20459;-78
2023/05/04 02:36:44;;;;;;;31.27;20.53;;;18.20;35.60;;;;;;4957199;28;20507;-81
2023/05/04 02:39:13;;;;;;;29.70;20.03;;;18.20;35.60;;;;;;4953763;29;20982;-79
2023/05/04 02:41:41;;;;;;;34.67;19.93;;;18.20;35.60;;;;;;4953811;29;20471;-77
2023/05/04 02:44:09;;;;;;;29.07;19.30;;;18.10;35.60;;;;;;4954215;28;20448;-80
2023/05/04 02:46:38;;;;;;;30.93;19.57;;;18.10;35.60;;;;;;4936549;28;20447;-80
2023/05/04 02:49:07;;;;;;;28.03;17.53;;;18.10;35.60;;;;;;4941508;29;20455;-79
2023/05/04 02:51:35;;;;;;;26.97;18.00;;;18.10;35.50;;;;;;4942930;29;20475;-79
2023/05/04 02:54:04;;;;;;;29.03;17.50;;;18.10;35.60;;;;;;4933588;29;20452;-79
2023/05/04 02:56:32;;;;;;;29.57;16.90;;;18.00;35.60;;;;;;4933802;29;20447;-78
2023/05/04 02:59:00;;;;;;;26.37;16.77;;;18.00;35.60;;;;;;4933948;29;20459;-78
2023/05/04 03:01:29;;;;;;;24.10;16.50;;;18.00;35.60;;;;;;4938781;29;20481;-78
2023/05/04 03:04:00;;;;;;;24.30;15.47;;;18.00;35.60;;;;;;4939987;28;20989;-79
2023/05/04 03:06:30;;;;;;;28.37;15.40;;;18.00;35.70;;;;;;4941401;29;20555;-79
2023/05/04 03:08:59;;;;;;;23.70;14.70;;;17.90;35.50;;;;;;4938175;29;20456;-79
2023/05/04 03:11:27;;;;;;;22.73;14.90;;;18.00;35.60;;;;;;4952326;29;20459;-80
2023/05/04 03:13:56;;;;;;;18.50;13.63;;;18.00;35.50;;;;;;4956400;28;20538;-80
2023/05/04 03:16:24;;;;;;;19.80;13.70;;;18.00;35.50;;;;;;4959024;28;20451;-80
2023/05/04 03:18:52;;;;;;;18.53;12.53;;;17.90;35.50;;;;;;4948546;29;20451;-80
2023/05/04 03:21:21;;;;;;;18.87;12.77;;;17.90;35.60;;;;;;4939958;29;20502;-80
2023/05/04 03:23:50;;;;;;;19.90;12.17;;;17.90;35.50;;;;;;4953384;29;20454;-80
2023/05/04 03:26:18;;;;;;;17.83;12.23;;;17.80;35.70;;;;;;4940231;29;20534;-80
2023/05/04 03:28:47;;;;;;;18.37;12.37;;;17.80;35.80;;;;;;4939219;29;20455;-79
2023/05/04 03:31:15;;;;;;;20.50;12.23;;;17.90;35.70;;;;;;4939773;29;20462;-81
2023/05/04 03:33:43;;;;;;;17.83;12.57;;;17.80;35.70;;;;;;4940973;29;20475;-79
2023/05/04 03:36:11;;;;;;;17.10;11.80;;;17.80;35.60;;;;;;4944316;29;20451;-80
2023/05/04 03:38:40;;;;;;;17.87;11.30;;;17.80;35.80;;;;;;4948142;29;20466;-80
2023/05/04 03:41:10;;;;;;;16.07;11.00;;;17.80;35.70;;;;;;4945081;29;20447;-80
2023/05/04 03:43:39;;;;;;;15.93;10.90;;;17.80;35.70;;;;;;4946550;29;20577;-79
2023/05/04 03:46:07;;;;;;;18.70;10.83;;;17.70;35.80;;;;;;4937333;29;20454;-79
2023/05/04 03:48:35;;;;;;;17.43;10.80;;;17.70;35.70;;;;;;4943318;29;20458;-79
2023/05/04 03:51:03;;;;;;;16.60;11.00;;;17.70;35.70;;;;;;4936949;29;20444;-78
2023/05/04 03:53:33;;;;;;;15.47;10.00;;;17.70;35.90;;;;;;4936810;29;20480;-78
2023/05/04 03:56:01;;;;;;;15.83;10.07;;;17.70;35.80;;;;;;4944280;28;20459;-78
2023/05/04 03:58:30;;;;;;;15.40;10.00;;;17.70;36.00;;;;;;4946401;29;20467;-78
2023/05/04 04:00:59;;;;;;;13.43;9.23;;;17.70;36.00;;;;;;4935445;29;20538;-78
2023/05/04 04:03:27;;;;;;;16.30;9.63;;;17.60;35.80;;;;;;4943562;29;20532;-79
2023/05/04 04:05:55;;;;;;;14.37;9.20;;;17.70;35.80;;;;;;4935438;29;20440;-79
2023/05/04 04:08:24;;;;;;;15.23;9.70;;;17.60;35.90;;;;;;4936131;29;20542;-78
2023/05/04 04:10:52;;;;;;;13.30;8.83;;;17.60;36.00;;;;;;4943398;29;20459;-79
2023/05/04 04:13:20;;;;;;;13.27;8.90;;;17.60;36.00;;;;;;4952244;29;20482;-78
2023/05/04 04:15:50;;;;;;;13.60;8.87;;;17.60;35.90;;;;;;4939456;29;20503;-80
2023/05/04 04:18:18;;;;;;;12.77;8.07;;;17.60;35.80;;;;;;4943599;29;20468;-80
2023/05/04 04:20:46;;;;;;;15.00;8.47;;;17.70;36.00;;;;;;4946041;29;20452;-80
2023/05/04 04:23:17;;;;;;;14.40;8.50;;;17.60;35.90;;;;;;4943359;29;20467;-80
2023/05/04 04:25:45;;;;;;;11.30;8.20;;;17.60;35.90;;;;;;4938591;29;20462;-78
2023/05/04 04:28:13;;;;;;;11.63;7.50;;;17.60;36.00;;;;;;4945680;29;20459;-79
2023/05/04 04:30:41;;;;;;;12.63;7.90;;;17.60;35.90;;;;;;4952293;28;20456;-79
2023/05/04 04:33:11;;;;;;;10.67;7.40;;;17.60;35.90;;;;;;4938686;29;20482;-79
2023/05/04 04:35:40;;;;;;;10.80;7.50;;;17.70;36.00;;;;;;4937332;29;20456;-79
2023/05/04 04:38:08;;;;;;;10.87;7.13;;;17.70;36.00;;;;;;4937489;29;20459;-79
2023/05/04 04:40:37;;;;;;;9.93;7.30;;;17.60;35.90;;;;;;4939123;29;20448;-80
2023/05/04 04:43:05;;;;;;;11.10;7.43;;;17.70;36.10;;;;;;4937097;29;20472;-80
2023/05/04 04:45:33;;;;;;;9.30;6.67;;;17.70;36.00;;;;;;4945163;29;20447;-80
2023/05/04 04:48:02;;;;;;;9.03;6.47;;;17.70;35.90;;;;;;4951392;28;20455;-80
2023/05/04 04:50:32;;;;;;;8.67;6.63;;;17.70;35.90;;;;;;4939027;29;20456;-81
2023/05/04 04:53:00;;;;;;;8.97;6.00;;;17.70;35.90;;;;;;4945189;29;20545;-80
2023/05/04 04:55:28;;;;;;;8.87;6.60;;;17.70;35.80;;;;;;4945997;29;20447;-79
2023/05/04 04:57:56;;;;;;;9.57;6.30;;;17.70;35.80;;;;;;4940678;29;20542;-79
2023/05/04 05:00:25;;;;;;;10.20;6.60;;;17.80;35.80;;;;;;4940678;29;20448;-79
2023/05/04 05:02:53;;;;;;;7.30;6.00;;;17.80;35.80;;;;;;4946558;29;20468;-79
2023/05/04 05:05:22;;;;;;;7.43;6.17;;;17.80;35.80;;;;;;4950503;29;20451;-81
2023/05/04 05:07:51;;;;;;;7.83;6.00;;;17.80;35.90;;;;;;4944475;29;20447;-79
2023/05/04 05:10:20;;;;;;;7.90;6.27;;;17.80;35.70;;;;;;4957731;28;20458;-82
2023/05/04 05:12:49;;;;;;;6.90;5.17;;;17.90;35.80;;;;;;4951796;29;20458;-80
2023/05/04 05:15:17;;;;;;;7.57;5.80;;;17.90;35.70;;;;;;4951709;29;20506;-80
2023/05/04 05:17:45;;;;;;;6.73;5.30;;;17.90;36.00;;;;;;4939395;29;20454;-80
2023/05/04 05:20:14;;;;;;;9.50;5.30;;;17.90;35.80;;;;;;4938750;29;20479;-79
2023/05/04 05:22:42;;;;;;;6.47;5.23;;;18.00;35.70;;;;;;4951800;29;20464;-80
2023/05/04 05:25:12;;;;;;;7.40;5.67;;;18.00;35.80;;;;;;4942908;29;20441;-80
2023/05/04 05:27:40;;;;;;;7.63;4.87;;;18.00;35.70;;;;;;4953593;29;20448;-80
2023/05/04 05:30:08;;;;;;;7.63;5.63;;;18.10;35.70;;;;;;4964885;28;20514;-80
2023/05/04 05:32:37;;;;;;;8.90;5.50;;;18.10;35.80;;;;;;4961108;29;20473;-80
2023/05/04 05:35:06;;;;;;;7.87;5.50;;;18.10;35.80;;;;;;4959994;29;20479;-80
2023/05/04 05:37:34;;;;;;;7.27;4.90;;;18.10;35.70;;;;;;4955827;28;20459;-80
2023/05/04 05:40:05;;;;;;;5.50;4.80;;;18.10;35.70;;;;;;4955329;29;20458;-80
2023/05/04 05:42:35;;;;;;;5.80;5.00;;;18.10;35.80;;;;;;4955920;29;20502;-79
2023/05/04 05:45:03;;;;;;;5.70;4.80;;;18.10;35.60;;;;;;4955209;29;20447;-80
2023/05/04 05:47:31;;;;;;;4.27;3.87;;;18.20;35.80;;;;;;4938715;29;20519;-80
2023/05/04 05:49:59;;;;;;;8.53;4.63;;;18.20;35.80;;;;;;4938271;29;20531;-80
2023/05/04 05:52:27;;;;;;;6.37;5.00;;;18.30;35.80;;;;;;4952768;29;20475;-80
2023/05/04 05:54:55;;;;;;;5.90;4.90;;;18.30;35.80;;;;;;4953166;29;20486;-80
2023/05/04 05:57:23;;;;;;;5.90;4.80;;;18.30;35.80;;;;;;4939040;29;20460;-80
2023/05/04 05:59:53;;;;;;;5.40;4.50;;;18.40;36.00;;;;;;4949092;29;20454;-81
2023/05/04 06:02:20;;;;;;;5.77;3.87;;;18.40;35.90;;;;;;4955264;29;20475;-77
2023/05/04 06:04:49;;;;;;;7.13;4.47;;;18.50;36.00;;;;;;4954654;28;20452;-81
2023/05/04 06:07:18;;;;;;;6.80;4.47;;;18.50;35.90;;;;;;4952143;29;20488;-81
2023/05/04 06:09:46;;;;;;;5.33;4.40;;;18.50;36.10;;;;;;4940400;29;20451;-81
2023/05/04 06:12:15;;;;;;;4.80;4.07;;;18.50;36.00;;;;;;4948925;29;20464;-78
2023/05/04 06:14:43;;;;;;;4.90;4.30;;;18.50;36.00;;;;;;4936558;29;20471;-81
2023/05/04 06:17:13;;;;;;;5.63;4.30;;;18.60;36.10;;;;;;4944916;29;20458;-80
2023/05/04 06:19:41;;;;;;;7.20;4.17;;;18.60;36.10;;;;;;4949412;29;20455;-81
2023/05/04 06:22:09;;;;;;;6.50;4.13;;;18.70;36.00;;;;;;4947577;29;20470;-81
2023/05/04 06:24:37;;;;;;;6.67;3.60;;;18.70;36.00;;;;;;4939063;29;20452;-80
2023/05/04 06:27:05;;;;;;;5.47;3.50;;;18.70;36.10;;;;;;4938460;29;20535;-79
2023/05/04 06:29:33;;;;;;;4.80;3.50;;;18.80;36.00;;;;;;4949311;29;20455;-81
2023/05/04 06:32:01;;;;;;;4.17;3.70;;;18.90;36.00;;;;;;4938617;29;20476;-82
2023/05/04 06:34:31;;;;;;;4.20;3.67;;;18.90;35.70;;;;;;4936939;29;20472;-80
2023/05/04 06:36:59;;;;;;;4.60;3.90;;;18.90;35.90;;;;;;4935867;29;20482;-80
2023/05/04 06:39:27;;;;;;;4.70;3.33;;;18.90;35.90;;;;;;4952861;29;20469;-80
2023/05/04 06:41:55;;;;;;;3.53;3.23;;;19.00;35.90;;;;;;4956019;29;20489;-80
2023/05/04 06:44:24;;;;;;;3.80;3.50;;;19.10;35.80;;;;;;4941013;29;20444;-81
2023/05/04 06:46:52;;;;;;;3.93;3.63;;;19.10;35.90;;;;;;4951050;28;20459;-81
2023/05/04 06:49:20;;;;;;;6.00;3.33;;;19.10;36.00;;;;;;4943782;29;20455;-80
2023/05/04 06:51:50;;;;;;;4.60;3.50;;;19.20;36.60;;;;;;4944266;29;20483;-81
2023/05/04 06:54:18;;;;;;;3.87;3.57;;;19.30;36.00;;;;;;4951288;29;20482;-81
2023/05/04 06:56:46;;;;;;;4.00;3.60;;;19.30;36.00;;;;;;4958089;29;20442;-80
2023/05/04 06:59:15;;;;;;;4.80;3.80;;;19.30;36.10;;;;;;4946727;29;20452;-80
2023/05/04 07:01:44;;;;;;;3.87;3.57;;;19.40;36.10;;;;;;4945123;29;20478;-80
2023/05/04 07:04:12;;;;;;;3.90;3.20;;;19.40;36.10;;;;;;4954466;29;20677;-79
2023/05/04 07:06:40;;;;;;;3.97;3.13;;;19.50;36.10;;;;;;4961991;29;20492;-79
2023/05/04 07:09:10;;;;;;;5.80;3.43;;;19.50;36.20;;;;;;4955256;29;20444;-80
2023/05/04 07:11:38;;;;;;;3.67;3.37;;;19.60;36.20;;;;;;4955018;29;20473;-81
2023/05/04 07:14:07;;;;;;;4.90;3.10;;;19.60;36.00;;;;;;4955722;29;20471;-80
2023/05/04 07:16:37;;;;;;;4.87;3.47;;;19.70;36.30;;;;;;4959448;29;20803;-79
2023/05/04 07:19:05;;;;;;;4.13;3.27;;;19.70;36.20;;;;;;4962173;28;20454;-80
2023/05/04 07:21:33;;;;;;;3.70;3.40;;;19.80;36.40;;;;;;4959451;28;20474;-80
2023/05/04 07:24:03;;;;;;;3.70;3.40;;;19.80;36.30;;;;;;4940827;29;20579;-79
2023/05/04 07:26:33;;;;;;;3.07;2.87;;;19.90;36.30;;;;;;4941131;29;20452;-77
2023/05/04 07:29:01;;;;;;;4.80;3.17;;;20.00;36.60;;;;;;4954162;28;20461;-79
2023/05/04 07:31:29;;;;;;;4.97;3.47;;;20.00;36.40;;;;;;4943960;28;20591;-77
2023/05/04 07:33:57;;;;;;;3.67;3.37;;;20.10;36.60;;;;;;4947062;28;20521;-78
2023/05/04 07:36:26;;;;;;;3.40;3.13;;;20.20;36.70;;;;;;4948461;28;20547;-78
2023/05/04 07:38:55;;;;;;;4.00;3.40;;;20.20;36.80;;;;;;4962247;28;20519;-76
2023/05/04 07:41:23;;;;;;;4.20;3.30;;;20.30;36.80;;;;;;4945195;28;20481;-78
2023/05/04 07:43:53;;;;;;;4.70;3.50;;;20.40;36.90;;;;;;4943678;29;20454;-82
2023/05/04 07:46:21;;;;;;;13.23;4.60;;;20.50;37.00;;;;;;4952544;29;20454;-84
2023/05/04 07:48:49;;;;;;;11.27;5.30;;;19.80;38.80;;;;;;4960351;28;20458;-81
2023/05/04 07:51:18;;;;;;;11.73;5.67;;;19.60;39.50;;;;;;4944835;29;20483;-80
2023/05/04 07:53:46;;;;;;;10.10;4.80;;;19.60;39.70;;;;;;4947483;28;20526;-81
2023/05/04 07:56:15;;;;;;;10.93;5.60;;;19.50;40.00;;;;;;4949674;29;20483;-82
2023/05/04 07:58:43;;;;;;;9.13;5.20;;;19.40;39.70;;;;;;4950458;29;20474;-82
2023/05/04 08:01:15;;;;;;;17.07;6.17;;;19.40;39.60;;;;;;4940436;29;20479;-83
2023/05/04 08:03:44;;;;;;;9.63;5.57;;;19.50;39.70;;;;;;4945230;29;20474;-81
2023/05/04 08:06:12;;;;;;;11.80;5.47;;;19.50;39.50;;;;;;4963787;29;20453;-78
2023/05/04 08:08:40;;;;;;;9.43;6.30;;;19.50;39.50;;;;;;4958799;29;20451;-78
2023/05/04 08:11:11;;;;;;;11.63;6.27;;;19.60;39.30;;;;;;4952817;29;20539;-75
2023/05/04 08:13:47;;;;;;;12.43;5.63;;;19.80;39.50;;;;;;4945397;29;20439;-78
2023/05/04 08:16:18;;;;;;;13.77;6.90;;;20.00;39.50;;;;;;4939208;29;20503;-78
2023/05/04 08:18:46;;;;;;;19.30;9.00;;;20.30;39.10;;;;;;4943930;29;20502;-81
2023/05/04 08:21:14;;;;;;;15.33;6.47;;;20.50;39.10;;;;;;4946434;29;20479;-79
2023/05/04 08:23:42;;;;;;;12.20;6.00;;;20.50;39.20;;;;;;4939502;29;20483;-79
2023/05/04 08:26:10;;;;;;;10.17;5.57;;;20.60;38.60;;;;;;4945971;29;20450;-80
2023/05/04 08:28:39;;;;;;;13.97;5.70;;;20.70;39.10;;;;;;4940807;29;20464;-80
2023/05/04 08:31:07;;;;;;;9.67;4.70;;;20.80;39.00;;;;;;4940571;29;20451;-80
2023/05/04 08:33:37;;;;;;;10.60;5.37;;;20.80;38.30;;;;;;4955281;29;20447;-78
2023/05/04 08:36:07;;;;;;;17.03;7.03;;;21.00;39.20;;;;;;4942676;29;20479;-79
2023/05/04 08:38:35;;;;;;;13.93;5.10;;;21.20;38.80;;;;;;4948238;29;20443;-80
2023/05/04 08:41:04;;;;;;;22.10;6.93;;;21.30;38.50;;;;;;4939219;29;20507;-81
2023/05/04 08:43:34;;;;;;;10.93;5.50;;;21.50;40.40;;;;;;4942347;29;20531;-79
2023/05/04 08:46:03;;;;;;;10.37;4.53;;;21.70;39.40;;;;;;4955216;28;20452;-80
2023/05/04 08:48:33;;;;;;;14.63;4.73;;;21.90;38.60;;;;;;4950243;29;20448;-79
2023/05/04 08:51:04;;;;;;;14.27;5.00;;;22.20;37.80;;;;;;4939659;29;20478;-79
2023/05/04 08:53:32;;;;;;;9.53;4.43;;;22.30;37.20;;;;;;4953695;28;20482;-77
2023/05/04 08:56:03;;;;;;;7.20;4.30;;;22.50;36.90;;;;;;4939516;29;20529;-79
2023/05/04 08:58:31;;;;;;;8.03;5.00;;;22.60;36.60;;;;;;4948012;29;20527;-79
2023/05/04 09:01:00;;;;;;;10.57;6.40;;;22.70;36.50;;;;;;4942108;29;20537;-79
2023/05/04 09:03:28;;;;;;;12.70;4.73;;;22.80;36.20;;;;;;4940250;29;20462;-80
2023/05/04 09:05:56;;;;;;;11.17;4.30;;;23.10;36.00;;;;;;4952446;29;20463;-79
2023/05/04 09:08:26;;;;;;;5.77;3.83;;;23.10;35.20;;;;;;4959028;29;20443;-80
2023/05/04 09:10:54;;;;;;;15.00;4.47;;;23.20;35.40;;;;;;4957233;28;20463;-79
2023/05/04 09:13:23;;;;;;;10.53;4.43;;;23.20;35.20;;;;;;4947111;29;20425;-80
2023/05/04 09:15:55;;;;;;;9.63;3.83;;;23.30;35.50;;;;;;4954012;29;20575;-80
2023/05/04 09:18:23;;;;;;;7.70;4.00;;;23.20;36.10;;;;;;4939780;29;20455;-80
2023/05/04 09:20:51;;;;;;;5.50;3.77;;;23.30;35.10;;;;;;4938518;29;20543;-79
2023/05/04 09:23:21;;;;;;;8.67;4.20;;;23.40;34.80;;;;;;4953078;29;20477;-79
2023/05/04 09:25:51;;;;;;;7.57;3.47;;;23.10;33.70;;;;;;4943087;28;20451;-79
2023/05/04 09:28:20;;;;;;;7.30;3.57;;;22.90;33.00;;;;;;4946286;29;20479;-80
2023/05/04 09:30:48;;;;;;;4.77;4.27;;;22.80;34.00;;;;;;4940083;29;20485;-79
2023/05/04 09:33:17;;;;;;;15.30;4.30;;;23.00;34.70;;;;;;4946172;29;20466;-79
2023/05/04 09:35:45;;;;;;;9.47;3.90;;;23.10;34.50;;;;;;4939889;29;20472;-79
2023/05/04 09:38:25;;;;;;;6.20;3.60;;;23.50;34.50;;;;;;4941328;29;20550;-78
2023/05/04 09:40:55;;;;;;;11.77;3.90;;;23.80;34.10;;;;;;4940203;29;20539;-79
2023/05/04 09:43:23;;;;;;;8.67;3.87;;;24.10;33.00;;;;;;4953809;29;20490;-79
2023/05/04 09:45:51;;;;;;;8.17;3.73;;;23.90;32.70;;;;;;4959040;28;20936;-78
2023/05/04 09:48:19;;;;;;;10.80;3.80;;;24.30;33.10;;;;;;4942480;29;20448;-79
2023/05/04 09:50:49;;;;;;;8.10;3.80;;;24.30;31.70;;;;;;4942139;29;20483;-79
2023/05/04 09:53:17;;;;;;;8.60;3.90;;;24.20;32.50;;;;;;4951365;29;20472;-79
2023/05/04 09:55:46;;;;;;;9.43;2.80;;;24.50;32.80;;;;;;4940031;29;20478;-80
2023/05/04 09:58:17;;;;;;;5.60;3.80;;;24.90;32.70;;;;;;4946334;29;20433;-80
2023/05/04 10:00:45;;;;;;;7.87;4.53;;;25.00;31.90;;;;;;4946512;29;20463;-79
2023/05/04 10:03:13;;;;;;;11.40;6.50;;;25.20;31.80;;;;;;4950978;28;20468;-80
2023/05/04 10:05:41;;;;;;;12.60;4.77;;;25.50;31.50;;;;;;4938476;29;20843;-79
2023/05/04 10:08:10;;;;;;;6.07;3.33;;;25.60;31.10;;;;;;4939051;29;20471;-80
2023/05/04 10:10:38;;;;;;;8.57;3.40;;;25.70;30.70;;;;;;4940301;29;20456;-80
2023/05/04 10:13:06;;;;;;;4.63;3.27;;;25.80;30.90;;;;;;4943643;29;20475;-79
2023/05/04 10:15:36;;;;;;;4.50;2.67;;;26.00;30.80;;;;;;4937819;29;20433;-79
2023/05/04 10:18:17;;;;;;;10.70;3.10;;;25.90;30.90;;;;;;4956264;28;20463;-80
2023/05/04 10:20:57;;;;;;;6.93;3.83;;;26.00;30.50;;;;;;4946331;29;20429;-79
2023/05/04 10:23:48;;;;;;;11.07;3.80;;;26.00;30.80;;;;;;4946059;28;20470;-80
2023/05/04 10:26:27;;;;;;;5.30;3.10;;;26.00;30.30;;;;;;4948180;29;20443;-78
2023/05/04 10:28:59;;;;;;;11.30;3.50;;;25.90;30.20;;;;;;4942849;29;20454;-80
2023/05/04 10:31:38;;;;;;;5.77;2.80;;;26.20;30.30;;;;;;4947894;29;20447;-79
2023/05/04 10:34:07;;;;;;;10.90;3.10;;;26.30;29.70;;;;;;4943610;28;20421;-78
2023/05/04 10:36:36;;;;;;;5.70;3.07;;;26.30;29.60;;;;;;4944547;29;20442;-80
2023/05/04 10:39:04;;;;;;;4.90;2.87;;;26.40;29.30;;;;;;4939298;29;20491;-80
2023/05/04 10:41:33;;;;;;;13.93;3.40;;;26.30;29.60;;;;;;4947525;29;20477;-80
2023/05/04 10:44:04;;;;;;;4.47;3.40;;;26.50;29.50;;;;;;4953997;29;20485;-77
2023/05/04 10:46:32;;;;;;;7.77;3.00;;;26.50;29.00;;;;;;4941848;29;20448;-79
2023/05/04 10:49:02;;;;;;;4.47;2.77;;;26.30;29.80;;;;;;4947536;29;20460;-79
2023/05/04 10:51:31;;;;;;;3.20;2.53;;;26.50;29.70;;;;;;4949840;28;20449;-79
2023/05/04 10:54:18;;;;;;;8.37;3.10;;;26.60;28.90;;;;;;4958745;29;20455;-79
2023/05/04 10:56:46;;;;;;;5.47;2.60;;;26.80;28.60;;;;;;4959042;28;20462;-79
2023/05/04 10:59:15;;;;;;;5.70;2.50;;;26.80;28.50;;;;;;4958389;29;20457;-79
2023/05/04 11:01:43;;;;;;;6.77;2.80;;;26.80;28.30;;;;;;4957836;29;20526;-77
2023/05/04 11:04:20;;;;;;;4.13;2.70;;;26.90;27.90;;;;;;4942678;29;20452;-79
2023/05/04 11:06:56;;;;;;;7.80;2.80;;;26.50;28.10;;;;;;4939077;29;20422;-79
2023/05/04 11:09:25;;;;;;;4.40;2.43;;;26.50;28.20;;;;;;4945887;29;20459;-79
2023/05/04 11:11:53;;;;;;;4.43;2.70;;;26.60;28.90;;;;;;4941874;29;20457;-79
2023/05/04 11:14:24;;;;;;;3.13;2.40;;;26.70;28.60;;;;;;4941041;29;20448;-79
2023/05/04 11:16:52;;;;;;;5.20;2.40;;;27.10;28.10;;;;;;4938486;29;20482;-78
2023/05/04 11:19:22;;;;;;;4.90;2.73;;;27.60;28.00;;;;;;4944132;29;20447;-79
2023/05/04 11:21:50;;;;;;;4.93;2.23;;;27.80;27.90;;;;;;4945752;29;20473;-79
2023/05/04 11:24:18;;;;;;;6.70;2.90;;;28.20;27.80;;;;;;4944908;29;20447;-79
2023/05/04 11:26:47;;;;;;;6.63;2.47;;;28.30;25.70;;;;;;4938091;28;20934;-78
2023/05/04 11:29:16;;;;;;;6.20;2.43;;;27.70;26.60;;;;;;4954199;29;20441;-79
2023/05/04 11:31:54;;;;;;;9.30;2.97;;;27.90;27.30;;;;;;4940152;28;20451;-80
2023/05/04 11:34:23;;;;;;;3.37;2.10;;;28.00;26.90;;;;;;4939737;29;20592;-79
2023/05/04 11:36:53;;;;;;;5.93;2.60;;;28.10;26.30;;;;;;4958827;28;20470;-79
2023/05/04 11:39:21;;;;;;;5.70;2.93;;;28.50;27.00;;;;;;4955239;29;20443;-79
2023/05/04 11:41:50;;;;;;;5.43;2.60;;;28.70;27.30;;;;;;4950240;29;20478;-78
2023/05/04 11:44:19;;;;;;;6.50;1.83;;;29.00;26.50;;;;;;4949265;29;20447;-79
2023/05/04 11:46:50;;;;;;;7.07;2.33;;;29.60;26.40;;;;;;4949260;29;20455;-79
2023/05/04 11:49:19;;;;;;;3.30;2.40;;;29.20;25.30;;;;;;4942805;29;20454;-79
2023/05/04 11:51:48;;;;;;;4.30;2.30;;;29.00;25.80;;;;;;4951934;29;21064;-79
2023/05/04 11:54:21;;;;;;;9.50;2.97;;;28.80;25.00;;;;;;4944840;28;20515;-80
2023/05/04 11:56:48;;;;;;;12.00;5.37;;;28.90;26.70;;;;;;4948893;29;21059;-79
2023/05/04 11:59:17;;;;;;;7.57;4.13;;;29.30;26.00;;;;;;4948427;29;20444;-78
2023/05/04 12:01:48;;;;;;;6.87;2.63;;;29.00;25.20;;;;;;4943626;29;20462;-79
2023/05/04 12:04:16;;;;;;;5.03;2.40;;;28.50;25.50;;;;;;4955660;29;20461;-79
2023/05/04 12:06:45;;;;;;;3.80;2.60;;;28.50;26.50;;;;;;4949665;29;20423;-79
2023/05/04 12:09:15;;;;;;;3.37;1.70;;;29.00;26.10;;;;;;4949988;29;20518;-80
2023/05/04 12:11:43;;;;;;;3.00;1.97;;;29.50;25.60;;;;;;4949551;29;20442;-78
2023/05/04 12:14:12;;;;;;;3.23;2.03;;;29.70;25.90;;;;;;4948815;29;20456;-79
2023/05/04 12:16:41;;;;;;;3.43;2.10;;;29.40;24.00;;;;;;4949138;29;20450;-80
2023/05/04 12:19:11;;;;;;;3.57;2.30;;;29.40;24.90;;;;;;4947806;29;20518;-80
2023/05/04 12:21:49;;;;;;;3.57;2.17;;;30.10;25.20;;;;;;4949571;29;20455;-77
2023/05/04 12:24:20;;;;;;;4.10;1.60;;;31.30;25.00;;;;;;4949064;29;20444;-77
2023/05/04 12:26:48;;;;;;;4.93;2.07;;;32.60;24.20;;;;;;4944402;29;20455;-80
2023/05/04 12:29:16;;;;;;;3.57;1.80;;;33.90;22.90;;;;;;4945526;29;20451;-81
2023/05/04 12:31:45;;;;;;;2.20;2.00;;;34.30;22.50;;;;;;4942911;29;20470;-78
2023/05/04 12:34:13;;;;;;;5.93;2.33;;;34.30;22.20;;;;;;4951311;28;20447;-79
2023/05/04 12:36:43;;;;;;;4.43;2.40;;;33.20;22.00;;;;;;4947865;28;20466;-79
2023/05/04 12:39:11;;;;;;;6.40;3.00;;;32.80;22.50;;;;;;4948491;29;20456;-80
2023/05/04 12:41:41;;;;;;;6.23;2.03;;;32.10;22.80;;;;;;4943121;29;21015;-79
2023/05/04 12:44:10;;;;;;;4.97;2.23;;;32.10;22.60;;;;;;4954357;29;20455;-79
2023/05/04 12:46:38;;;;;;;2.67;2.30;;;31.90;22.50;;;;;;4951619;29;20460;-79